createdAt,value
2022-10-15T00:01:07.575Z,33.30
2022-10-15T00:03:37.577Z,32.97
2022-10-15T00:06:06.678Z,32.77
2022-10-15T00:08:33.601Z,32.80
2022-10-15T00:11:05.971Z,33.40
2022-10-15T00:13:33.312Z,33.97
2022-10-15T00:16:00.815Z,30.70
2022-10-15T00:18:27.637Z,32.60
2022-10-15T00:20:54.475Z,31.70
2022-10-15T00:23:22.055Z,32.27
2022-10-15T00:25:48.850Z,32.07
2022-10-15T00:28:15.922Z,32.17
2022-10-15T00:30:42.679Z,34.57
2022-10-15T00:33:09.520Z,34.93
2022-10-15T00:35:36.330Z,32.70
2022-10-15T00:38:03.436Z,35.10
2022-10-15T00:40:30.296Z,33.40
2022-10-15T00:42:57.035Z,33.33
2022-10-15T00:45:23.840Z,32.13
2022-10-15T00:47:53.001Z,33.73
2022-10-15T00:50:23.487Z,34.07
2022-10-15T00:52:58.975Z,32.10
2022-10-15T00:55:38.837Z,33.43
2022-10-15T01:00:44.522Z,31.27
2022-10-15T01:03:12.809Z,31.83
2022-10-15T01:05:40.744Z,33.07
2022-10-15T01:08:07.474Z,31.27
2022-10-15T01:11:06.181Z,30.27
2022-10-15T01:13:47.059Z,31.13
2022-10-15T01:16:39.669Z,31.37
2022-10-15T01:19:34.008Z,30.63
2022-10-15T01:22:30.870Z,30.03
2022-10-15T01:25:13.246Z,31.57
2022-10-15T01:27:46.099Z,30.50
2022-10-15T01:30:25.911Z,33.20
2022-10-15T01:33:22.870Z,31.80
2022-10-15T01:35:54.096Z,31.40
2022-10-15T01:38:41.077Z,30.60
2022-10-15T01:41:10.440Z,33.60
2022-10-15T01:43:40.277Z,33.77
2022-10-15T01:46:12.852Z,33.60
2022-10-15T01:48:41.885Z,31.50
2022-10-15T01:51:12.363Z,34.33
2022-10-15T01:53:40.348Z,33.37
2022-10-15T01:56:11.614Z,34.30
2022-10-15T01:58:42.114Z,32.23
2022-10-15T02:01:09.829Z,33.73
2022-10-15T02:03:50.918Z,33.23
2022-10-15T02:06:38.821Z,34.77
2022-10-15T02:09:38.247Z,33.80
2022-10-15T02:12:19.788Z,34.30
2022-10-15T02:15:05.268Z,32.67
2022-10-15T02:17:46.078Z,33.23
2022-10-15T02:20:18.750Z,33.77
2022-10-15T02:22:55.494Z,35.50
2022-10-15T02:25:24.756Z,33.83
2022-10-15T02:27:53.885Z,34.67
2022-10-15T02:30:21.041Z,35.47
2022-10-15T02:32:52.435Z,33.93
2022-10-15T02:35:20.618Z,34.97
2022-10-15T02:37:51.337Z,34.30
2022-10-15T02:40:19.048Z,35.33
2022-10-15T02:42:45.814Z,36.47
2022-10-15T02:45:12.547Z,36.40
2022-10-15T02:47:39.271Z,38.13
2022-10-15T02:50:06.435Z,38.03
2022-10-15T02:52:33.144Z,39.17
2022-10-15T02:55:00.129Z,40.07
2022-10-15T02:57:27.244Z,37.97
2022-10-15T02:59:54.133Z,40.03
2022-10-15T03:02:21.016Z,39.57
2022-10-15T03:04:47.771Z,39.50
2022-10-15T03:07:14.730Z,37.80
2022-10-15T03:09:41.478Z,37.10
2022-10-15T03:12:08.610Z,34.67
2022-10-15T03:14:35.558Z,35.17
2022-10-15T03:17:02.360Z,35.93
2022-10-15T03:19:29.049Z,34.83
2022-10-15T03:21:55.736Z,35.90
2022-10-15T03:24:22.541Z,35.00
2022-10-15T03:26:49.388Z,37.07
2022-10-15T03:29:16.263Z,35.83
2022-10-15T03:31:43.039Z,36.43
2022-10-15T03:34:09.803Z,37.43
2022-10-15T03:36:36.548Z,36.80
2022-10-15T03:39:03.419Z,38.43
2022-10-15T03:41:30.120Z,37.20
2022-10-15T03:44:01.808Z,35.43
2022-10-15T03:46:28.543Z,36.60
2022-10-15T03:48:55.279Z,35.30
2022-10-15T03:51:24.622Z,35.03
2022-10-15T03:53:53.993Z,35.60
2022-10-15T03:56:20.750Z,36.40
2022-10-15T03:58:47.498Z,36.57
2022-10-15T04:01:16.962Z,35.37
2022-10-15T04:03:43.833Z,36.77
2022-10-15T04:06:10.991Z,35.83
2022-10-15T04:08:37.730Z,35.83
2022-10-15T04:11:04.457Z,34.80
2022-10-15T04:13:31.530Z,33.70
2022-10-15T04:15:58.308Z,34.17
2022-10-15T04:18:25.232Z,34.23
2022-10-15T04:20:51.947Z,33.20
2022-10-15T04:23:18.709Z,35.93
2022-10-15T04:25:46.229Z,34.03
2022-10-15T04:28:12.928Z,33.47
2022-10-15T04:30:39.613Z,34.80
2022-10-15T04:33:06.423Z,35.73
2022-10-15T04:35:35.090Z,36.70
2022-10-15T04:38:02.443Z,36.37
2022-10-15T04:40:29.247Z,35.43
2022-10-15T04:42:56.123Z,35.40
2022-10-15T04:47:50.553Z,36.77
2022-10-15T04:50:17.385Z,36.77
2022-10-15T04:52:44.261Z,38.47
2022-10-15T04:55:11.158Z,38.77
2022-10-15T04:57:37.944Z,38.37
2022-10-15T05:00:06.090Z,37.27
2022-10-15T05:02:33.210Z,38.70
2022-10-15T05:05:00.029Z,41.43
2022-10-15T05:07:27.217Z,41.57
2022-10-15T05:09:54.192Z,40.70
2022-10-15T05:12:20.926Z,42.13
2022-10-15T05:14:47.713Z,41.67
2022-10-15T05:17:14.473Z,42.07
2022-10-15T05:19:41.236Z,40.87
2022-10-15T05:22:08.028Z,40.83
2022-10-15T05:24:34.878Z,40.77
2022-10-15T05:27:03.045Z,39.70
2022-10-15T05:29:30.364Z,40.50
2022-10-15T05:31:57.063Z,39.30
2022-10-15T05:34:24.697Z,38.83
2022-10-15T05:36:51.655Z,41.27
2022-10-15T05:39:18.963Z,42.13
2022-10-15T05:41:45.766Z,40.13
2022-10-15T05:44:12.582Z,40.77
2022-10-15T05:46:39.453Z,41.50
2022-10-15T05:49:06.173Z,41.70
2022-10-15T05:51:32.900Z,41.13
2022-10-15T05:53:59.801Z,41.03
2022-10-15T05:56:27.633Z,41.07
2022-10-15T05:58:55.331Z,42.10
2022-10-15T06:01:22.371Z,42.93
2022-10-15T06:03:49.362Z,41.97
2022-10-15T06:06:17.606Z,42.50
2022-10-15T06:08:44.601Z,43.70
2022-10-15T06:11:11.594Z,44.53
2022-10-15T06:13:40.000Z,44.93
2022-10-15T06:16:06.957Z,44.00
2022-10-15T06:18:34.099Z,44.77
2022-10-15T06:21:01.411Z,44.17
2022-10-15T06:23:28.256Z,44.37
2022-10-15T06:25:55.075Z,46.73
2022-10-15T06:28:21.936Z,46.03
2022-10-15T06:30:48.934Z,48.50
2022-10-15T06:33:17.119Z,45.20
2022-10-15T06:35:44.139Z,47.50
2022-10-15T06:38:11.295Z,48.17
2022-10-15T06:40:39.505Z,46.50
2022-10-15T06:43:08.236Z,46.33
2022-10-15T06:45:41.659Z,44.73
2022-10-15T06:48:09.101Z,44.70
2022-10-15T06:50:37.938Z,42.73
2022-10-15T06:53:05.457Z,39.07
2022-10-15T06:55:32.390Z,40.47
2022-10-15T06:57:59.445Z,37.73
2022-10-15T07:00:27.784Z,36.57
2022-10-15T07:02:54.745Z,36.03
2022-10-15T07:05:22.107Z,36.83
2022-10-15T07:07:57.639Z,37.13
2022-10-15T07:10:26.499Z,37.00
2022-10-15T07:12:54.943Z,36.53
2022-10-15T07:15:22.306Z,36.53
2022-10-15T07:17:50.969Z,34.90
2022-10-15T07:20:21.795Z,36.30
2022-10-15T07:22:51.788Z,36.67
2022-10-15T07:25:18.565Z,35.60
2022-10-15T07:27:45.318Z,37.50
2022-10-15T07:30:12.125Z,37.93
2022-10-15T07:32:38.887Z,37.73
2022-10-15T07:35:06.116Z,40.60
2022-10-15T07:37:33.381Z,40.87
2022-10-15T07:40:00.294Z,39.03
2022-10-15T07:42:27.508Z,40.20
2022-10-15T07:44:54.312Z,40.53
2022-10-15T07:47:21.335Z,41.53
2022-10-15T07:49:48.189Z,41.53
2022-10-15T07:52:14.973Z,38.63
2022-10-15T07:54:41.800Z,39.33
2022-10-15T07:57:09.205Z,37.87
2022-10-15T07:59:35.993Z,39.37
2022-10-15T08:02:02.933Z,36.30
2022-10-15T08:04:29.872Z,36.23
2022-10-15T08:06:56.598Z,35.37
2022-10-15T08:09:23.401Z,38.97
2022-10-15T08:11:50.167Z,35.07
2022-10-15T08:14:17.762Z,37.93
2022-10-15T08:16:44.699Z,37.60
2022-10-15T08:19:11.621Z,35.23
2022-10-15T08:21:38.362Z,35.43
2022-10-15T08:24:05.918Z,33.37
2022-10-15T08:26:32.672Z,33.43
2022-10-15T08:28:59.487Z,33.03
2022-10-15T08:31:26.465Z,31.23
2022-10-15T08:33:53.615Z,30.47
2022-10-15T08:36:20.482Z,28.97
2022-10-15T08:38:47.217Z,29.03
2022-10-15T08:41:52.151Z,28.07
2022-10-15T08:44:32.134Z,27.80
2022-10-15T08:47:19.862Z,25.17
2022-10-15T08:49:52.130Z,25.60
2022-10-15T08:52:40.867Z,26.90
2022-10-15T08:55:14.822Z,25.57
2022-10-15T08:58:14.995Z,24.70
2022-10-15T09:00:50.322Z,23.53
2022-10-15T09:03:36.575Z,25.37
2022-10-15T09:06:37.410Z,24.17
2022-10-15T09:09:15.922Z,24.63
2022-10-15T09:12:41.136Z,24.77
2022-10-15T09:15:17.186Z,22.70
2022-10-15T09:17:46.884Z,23.20
2022-10-15T09:20:24.992Z,24.70
2022-10-15T09:22:52.316Z,22.70
2022-10-15T09:25:22.382Z,20.90
2022-10-15T09:27:51.206Z,21.63
2022-10-15T09:30:45.577Z,20.40
2022-10-15T09:33:19.947Z,21.00
2022-10-15T09:36:11.098Z,21.40
2022-10-15T09:38:49.991Z,20.63
2022-10-15T09:41:31.849Z,20.40
2022-10-15T09:44:01.823Z,19.70
2022-10-15T09:46:30.344Z,18.70
2022-10-15T09:49:24.495Z,19.77
2022-10-15T09:51:51.320Z,20.87
2022-10-15T09:54:31.748Z,20.20
2022-10-15T09:56:58.623Z,20.53
2022-10-15T09:59:26.529Z,20.03
2022-10-15T10:02:05.459Z,19.40
2022-10-15T10:04:34.612Z,20.63
2022-10-15T10:07:04.619Z,19.33
2022-10-15T10:09:39.204Z,19.77
2022-10-15T10:12:08.754Z,19.67
2022-10-15T10:14:41.560Z,19.03
2022-10-15T10:17:18.569Z,19.17
2022-10-15T10:20:02.119Z,16.17
2022-10-15T10:22:29.230Z,15.20
2022-10-15T10:24:56.015Z,16.03
2022-10-15T10:27:29.991Z,13.77
2022-10-15T10:30:01.407Z,13.80
2022-10-15T10:32:34.346Z,13.40
2022-10-15T10:35:03.494Z,14.43
2022-10-15T10:37:42.082Z,13.00
2022-10-15T10:40:29.965Z,12.87
2022-10-15T10:43:11.796Z,12.57
2022-10-15T10:45:38.882Z,12.73
2022-10-15T10:48:43.941Z,12.70
2022-10-15T10:51:23.272Z,12.30
2022-10-15T10:54:14.463Z,11.20
2022-10-15T10:56:45.135Z,10.73
2022-10-15T10:59:27.188Z,11.47
2022-10-15T11:01:56.685Z,9.77
2022-10-15T11:04:35.907Z,9.23
2022-10-15T11:07:14.804Z,9.43
2022-10-15T11:10:10.511Z,9.00
2022-10-15T11:12:55.453Z,8.97
2022-10-15T11:15:53.672Z,9.07
2022-10-15T11:18:32.230Z,7.97
2022-10-15T11:21:23.132Z,7.17
2022-10-15T11:24:02.421Z,6.17
2022-10-15T11:27:09.552Z,5.77
2022-10-15T11:29:58.337Z,6.10
2022-10-15T11:33:06.310Z,6.20
2022-10-15T11:35:52.847Z,5.23
2022-10-15T11:38:39.572Z,5.93
2022-10-15T11:41:45.923Z,5.30
2022-10-15T11:44:22.431Z,5.73
2022-10-15T11:47:18.561Z,5.70
2022-10-15T11:50:29.547Z,6.50
2022-10-15T11:53:14.394Z,5.47
2022-10-15T11:55:57.060Z,4.70
2022-10-15T11:58:32.674Z,4.17
2022-10-15T12:01:06.760Z,3.60
2022-10-15T12:03:44.624Z,3.35
2022-10-15T12:06:16.365Z,2.95
2022-10-15T12:08:44.458Z,2.60
2022-10-15T12:11:16.920Z,2.55
2022-10-15T12:13:58.686Z,2.40
2022-10-15T12:16:33.671Z,2.30
2022-10-15T12:19:25.464Z,2.30
2022-10-15T12:21:55.065Z,1.98
2022-10-15T12:24:40.735Z,1.80
2022-10-15T12:27:34.959Z,2.15
2022-10-15T12:30:07.383Z,2.33
2022-10-15T12:32:48.809Z,1.98
2022-10-15T12:35:15.667Z,1.60
2022-10-15T12:37:45.001Z,1.40
2022-10-15T12:40:23.816Z,1.70
2022-10-15T12:42:57.740Z,1.77
2022-10-15T12:45:40.673Z,1.17
2022-10-15T12:48:20.995Z,1.48
2022-10-15T12:50:48.032Z,1.55
2022-10-15T12:53:29.918Z,1.40
2022-10-15T12:56:11.458Z,0.93
2022-10-15T12:58:44.285Z,1.07
2022-10-15T13:01:13.887Z,1.10
2022-10-15T13:03:50.542Z,0.88
2022-10-15T13:06:41.516Z,0.80
2022-10-15T13:09:11.419Z,1.10
2022-10-15T13:11:49.286Z,1.10
2022-10-15T13:14:36.879Z,0.98
2022-10-15T13:17:18.330Z,0.80
2022-10-15T13:20:04.679Z,0.87
2022-10-15T13:22:33.932Z,1.00
2022-10-15T13:25:01.419Z,0.80
2022-10-15T13:27:33.392Z,0.90
2022-10-15T13:30:04.304Z,0.83
2022-10-15T13:32:36.926Z,0.77
2022-10-15T13:35:10.998Z,0.90
2022-10-15T13:37:40.343Z,0.80
2022-10-15T13:40:08.514Z,0.70
2022-10-15T13:42:36.102Z,0.60
2022-10-15T13:45:13.833Z,0.80
2022-10-15T13:47:46.708Z,0.70
2022-10-15T13:50:25.833Z,0.63
2022-10-15T13:53:12.348Z,0.50
2022-10-15T13:55:43.978Z,0.60
2022-10-15T13:58:27.474Z,0.77
2022-10-15T14:01:14.765Z,0.60
2022-10-15T14:03:50.308Z,0.90
2022-10-15T14:06:21.786Z,0.70
2022-10-15T14:09:19.229Z,1.20
2022-10-15T14:11:47.236Z,0.87
2022-10-15T14:14:34.184Z,0.80
2022-10-15T14:17:04.482Z,0.80
2022-10-15T14:19:33.701Z,0.63
2022-10-15T14:22:01.504Z,0.60
2022-10-15T14:24:33.432Z,0.73
2022-10-15T14:27:23.316Z,0.60
2022-10-15T14:29:53.841Z,0.70
2022-10-15T14:32:22.675Z,0.80
2022-10-15T14:34:50.830Z,0.87
2022-10-15T14:37:36.212Z,0.83
2022-10-15T14:40:11.533Z,0.80
2022-10-15T14:42:41.570Z,0.80
2022-10-15T14:45:30.004Z,0.80
2022-10-15T14:48:03.119Z,0.80
2022-10-15T14:50:36.059Z,0.97
2022-10-15T14:53:09.790Z,1.00
2022-10-15T14:55:42.714Z,0.93
2022-10-15T14:58:16.448Z,1.00
2022-10-15T15:00:45.585Z,0.90
2022-10-15T15:03:18.298Z,1.00
2022-10-15T15:05:50.166Z,0.97
2022-10-15T15:08:17.017Z,1.00
2022-10-15T15:10:44.965Z,1.20
2022-10-15T15:13:18.134Z,1.10
2022-10-15T15:15:44.921Z,0.73
2022-10-15T15:18:12.130Z,0.90
2022-10-15T15:20:41.683Z,1.10
2022-10-15T15:23:14.898Z,0.90
2022-10-15T15:25:42.104Z,1.00
2022-10-15T15:28:17.479Z,1.00
2022-10-15T15:30:45.718Z,0.80
2022-10-15T15:33:14.332Z,1.10
2022-10-15T15:35:56.398Z,0.67
2022-10-15T15:38:30.904Z,0.90
2022-10-15T15:41:15.988Z,0.90
2022-10-15T15:43:43.552Z,1.10
2022-10-15T15:46:10.871Z,1.13
2022-10-15T15:48:38.221Z,1.40
2022-10-15T15:51:19.915Z,0.90
2022-10-15T15:53:46.756Z,0.90
2022-10-15T15:56:14.107Z,0.70
2022-10-15T15:58:41.041Z,0.77
2022-10-15T16:01:07.862Z,0.77
2022-10-15T16:03:36.303Z,0.80
2022-10-15T16:06:07.123Z,1.00
2022-10-15T16:08:37.657Z,1.10
2022-10-15T16:11:06.164Z,1.10
2022-10-15T16:13:33.695Z,0.63
2022-10-15T16:16:00.504Z,1.27
2022-10-15T16:18:27.295Z,0.87
2022-10-15T16:20:54.797Z,0.80
2022-10-15T16:23:24.770Z,0.80
2022-10-15T16:25:51.893Z,0.80
2022-10-15T16:28:18.819Z,0.70
2022-10-15T16:30:45.649Z,0.90
2022-10-15T16:33:12.448Z,0.87
2022-10-15T16:35:39.175Z,1.17
2022-10-15T16:38:06.395Z,0.90
2022-10-15T16:40:33.786Z,2.13
2022-10-15T16:43:00.644Z,2.70
2022-10-15T16:45:27.707Z,2.67
2022-10-15T16:47:54.549Z,2.00
2022-10-15T16:50:21.463Z,1.50
2022-10-15T16:52:48.331Z,4.10
2022-10-15T16:55:16.706Z,4.03
2022-10-15T16:57:44.504Z,3.93
2022-10-15T17:00:12.052Z,2.40
2022-10-15T17:02:38.986Z,3.30
2022-10-15T17:05:06.388Z,2.40
2022-10-15T17:07:33.133Z,2.37
2022-10-15T17:10:00.354Z,2.47
2022-10-15T17:12:27.918Z,3.70
2022-10-15T17:14:55.477Z,3.53
2022-10-15T17:17:22.460Z,5.13
2022-10-15T17:19:49.241Z,8.33
2022-10-15T17:22:16.214Z,5.57
2022-10-15T17:24:43.355Z,4.80
2022-10-15T17:27:10.131Z,4.00
2022-10-15T17:29:37.320Z,4.50
2022-10-15T17:32:04.111Z,4.77
2022-10-15T17:34:31.269Z,5.00
2022-10-15T17:36:58.302Z,4.03
2022-10-15T17:39:25.142Z,3.50
2022-10-15T17:41:52.602Z,4.13
2022-10-15T17:44:20.265Z,3.50
2022-10-15T17:49:19.091Z,4.43
2022-10-15T17:51:46.842Z,3.60
2022-10-15T17:54:13.918Z,3.77
2022-10-15T17:56:41.331Z,4.33
2022-10-15T17:59:10.705Z,5.33
2022-10-15T18:04:31.132Z,4.20
2022-10-15T18:06:57.997Z,4.20
2022-10-15T18:09:26.744Z,4.10
2022-10-15T18:11:53.943Z,3.40
2022-10-15T18:16:48.198Z,4.43
2022-10-15T18:19:15.145Z,4.83
2022-10-15T18:21:45.646Z,4.87
2022-10-15T18:24:15.814Z,4.77
2022-10-15T18:26:44.311Z,5.60
2022-10-15T18:29:11.316Z,5.43
2022-10-15T18:31:38.249Z,5.30
2022-10-15T18:34:05.005Z,8.07
2022-10-15T18:36:32.329Z,6.70
2022-10-15T18:38:59.852Z,5.33
2022-10-15T18:41:33.671Z,5.80
2022-10-15T18:44:06.506Z,5.03
2022-10-15T18:46:34.905Z,3.60
2022-10-15T18:49:02.347Z,6.47
2022-10-15T18:51:29.542Z,6.27
2022-10-15T18:53:56.361Z,6.33
2022-10-15T18:56:23.452Z,3.73
2022-10-15T18:58:52.533Z,4.60
2022-10-15T19:01:24.593Z,6.40
2022-10-15T19:03:52.627Z,4.17
2022-10-15T19:06:21.942Z,5.13
2022-10-15T19:08:49.779Z,4.17
2022-10-15T19:11:17.375Z,3.83
2022-10-15T19:13:44.167Z,4.63
2022-10-15T19:16:11.485Z,4.90
2022-10-15T19:18:38.422Z,5.83
2022-10-15T19:21:06.027Z,5.00
2022-10-15T19:23:33.953Z,4.70
2022-10-15T19:26:02.452Z,3.80
2022-10-15T19:28:29.346Z,3.00
2022-10-15T19:30:57.692Z,2.67
2022-10-15T19:33:25.725Z,2.87
2022-10-15T19:35:53.065Z,2.20
2022-10-15T19:38:22.857Z,2.00
2022-10-15T19:40:52.630Z,2.30
2022-10-15T19:43:21.049Z,1.70
2022-10-15T19:45:48.368Z,1.97
2022-10-15T19:48:17.439Z,1.90
2022-10-15T19:50:45.870Z,1.53
2022-10-15T19:53:16.450Z,2.20
2022-10-15T19:55:54.535Z,1.73
2022-10-15T19:58:21.484Z,2.00
2022-10-15T20:00:52.364Z,2.60
2022-10-15T20:03:20.606Z,2.17
2022-10-15T20:05:47.926Z,1.87
2022-10-15T20:08:15.926Z,2.43
2022-10-15T20:10:44.723Z,2.30
2022-10-15T20:13:13.528Z,3.23
2022-10-15T20:15:45.211Z,3.57
2022-10-15T20:18:13.005Z,2.73
2022-10-15T20:20:42.432Z,2.50
2022-10-15T20:23:09.634Z,2.50
2022-10-15T20:25:40.604Z,2.00
2022-10-15T20:28:07.420Z,2.40
2022-10-15T20:30:35.843Z,1.70
2022-10-15T20:33:02.566Z,1.63
2022-10-15T20:35:32.209Z,1.97
2022-10-15T20:37:58.964Z,1.63
2022-10-15T20:40:25.847Z,2.67
2022-10-15T20:42:55.407Z,2.30
2022-10-15T20:45:23.297Z,2.10
2022-10-15T20:47:53.579Z,2.37
2022-10-15T20:50:26.530Z,2.67
2022-10-15T20:52:55.424Z,3.30
2022-10-15T20:55:22.810Z,2.63
2022-10-15T20:57:50.259Z,2.60
2022-10-15T21:00:17.330Z,2.40
2022-10-15T21:02:44.084Z,2.70
2022-10-15T21:05:10.858Z,2.50
2022-10-15T21:07:37.672Z,2.90
2022-10-15T21:10:05.046Z,2.17
2022-10-15T21:12:31.879Z,2.57
2022-10-15T21:14:58.618Z,2.60
2022-10-15T21:17:25.699Z,2.70
2022-10-15T21:19:53.113Z,2.70
2022-10-15T21:22:20.498Z,3.00
2022-10-15T21:24:47.284Z,2.87
2022-10-15T21:27:14.037Z,2.63
2022-10-15T21:29:42.445Z,3.33
2022-10-15T21:32:09.631Z,2.50
2022-10-15T21:34:36.484Z,2.80
2022-10-15T21:37:03.433Z,2.80
2022-10-15T21:39:30.260Z,2.90
2022-10-15T21:41:57.089Z,2.67
2022-10-15T21:44:23.830Z,3.43
2022-10-15T21:46:50.667Z,2.63
2022-10-15T21:49:17.464Z,2.60
2022-10-15T21:51:44.403Z,2.63
2022-10-15T21:54:11.457Z,2.30
2022-10-15T21:56:38.533Z,2.10
2022-10-15T21:59:06.098Z,2.10
2022-10-15T22:01:35.370Z,2.00
2022-10-15T22:04:05.156Z,2.07
2022-10-15T22:06:32.491Z,2.20
2022-10-15T22:08:59.877Z,2.33
2022-10-15T22:11:29.122Z,2.20
2022-10-15T22:13:58.604Z,2.23
2022-10-15T22:16:27.592Z,2.20
2022-10-15T22:18:55.764Z,3.73
2022-10-15T22:21:28.653Z,2.17
2022-10-15T22:24:00.983Z,2.10
2022-10-15T22:26:34.896Z,2.27
2022-10-15T22:29:03.354Z,2.30
2022-10-15T22:31:30.525Z,2.43
2022-10-15T22:34:00.179Z,2.23
2022-10-15T22:36:29.633Z,2.30
2022-10-15T22:39:01.680Z,2.50
2022-10-15T22:41:30.656Z,2.90
2022-10-15T22:43:57.997Z,2.87
2022-10-15T22:46:25.497Z,2.80
2022-10-15T22:48:53.609Z,3.33
2022-10-15T22:51:21.293Z,2.97
2022-10-15T22:53:48.304Z,3.50
2022-10-15T22:56:17.676Z,3.50
2022-10-15T22:58:45.483Z,3.23
2022-10-15T23:01:14.142Z,4.03
2022-10-15T23:03:43.068Z,4.00
2022-10-15T23:06:10.218Z,4.40
2022-10-15T23:08:38.117Z,4.60
2022-10-15T23:11:10.171Z,5.20
2022-10-15T23:13:38.194Z,5.13
2022-10-15T23:16:06.660Z,5.70
2022-10-15T23:18:33.665Z,5.40
2022-10-15T23:21:10.639Z,5.80
2022-10-15T23:23:37.527Z,5.53
2022-10-15T23:26:04.336Z,6.33
2022-10-15T23:28:31.147Z,5.60
2022-10-15T23:30:57.935Z,5.90
2022-10-15T23:33:24.841Z,6.27
2022-10-15T23:35:59.727Z,5.97
2022-10-15T23:38:28.105Z,6.67
2022-10-15T23:41:02.839Z,6.50
2022-10-15T23:43:30.342Z,6.33
2022-10-15T23:45:57.664Z,6.47
2022-10-15T23:48:25.572Z,6.80
2022-10-15T23:50:52.499Z,7.47
2022-10-15T23:53:19.653Z,8.00
2022-10-15T23:55:47.024Z,7.20
2022-10-15T23:58:14.128Z,7.67
